Villa Real, Puerto Rico
Current Conditions -  °F | °C
As of 2:50 PM on Sunday 21 Dec 2014 (Local Time) from TJBQ Reporting Station
Clear Clear  
Wind Chill: 82°   Ceiling: Unl
Heat Index: 85°   Visibility: 10mi
Dew Point: 66°   Wind: 21mph
Humidity: 58%   Direction: 80°E
Pressure: 30.03"   Gusts: 28mph
Location:  18.0849°N, 67.1633°W
Report Text: TJBQ 211850Z 08018G24KT 10SM SKC 28/19 A3003 RMK RWY 8 ATIS D
Loading
Personal Weather Stations






























Interactive Weather Map New forecast layout! Learn more

10-Day Weather Forecast

Advertisements
Track Severe Weather on mobile